Time;durP1;ratioP1;P1;durP2;ratioP2;P2;SDS_P1;SDS_P2;PMS_P1;PMS_P2;Temp;Humidity;BMP_temperature;BMP_pressure;BME280_temperature;BME280_humidity;BME280_pressure;Samples;Min_cycle;Max_cycle;Signal;HPM_P1;HPM_P2
2024/03/12 00:01:43;;;;;;;87.55;50.88;;;7.70;99.90;;;;;;5136001;27;20039;-66
2024/03/12 00:04:09;;;;;;;81.00;52.35;;;7.70;99.90;;;;;;5130628;27;20053;-65
2024/03/12 00:06:35;;;;;;;81.75;50.85;;;7.70;99.90;;;;;;5136233;27;20035;-67
2024/03/12 00:09:03;;;;;;;83.30;51.42;;;7.70;99.90;;;;;;5123323;27;20503;-65
2024/03/12 00:11:28;;;;;;;91.38;50.75;;;7.70;99.90;;;;;;5142581;27;20039;-66
2024/03/12 00:13:54;;;;;;;92.53;52.75;;;7.70;99.90;;;;;;5128964;27;20040;-66
2024/03/12 00:16:20;;;;;;;77.75;50.40;;;7.80;99.90;;;;;;5117876;27;20050;-66
2024/03/12 00:18:47;;;;;;;87.80;51.38;;;7.70;99.90;;;;;;5114122;27;20042;-65
2024/03/12 00:21:13;;;;;;;78.00;48.55;;;7.80;99.90;;;;;;5128901;27;20041;-65
2024/03/12 00:23:41;;;;;;;89.75;52.67;;;7.70;99.90;;;;;;5134310;27;20031;-66
2024/03/12 00:26:10;;;;;;;86.38;52.28;;;7.80;99.90;;;;;;5145600;27;20039;-66
2024/03/12 00:28:36;;;;;;;80.45;51.35;;;7.80;99.90;;;;;;5134251;27;20403;-66
2024/03/12 00:31:05;;;;;;;85.15;52.63;;;7.80;99.90;;;;;;5111384;27;20051;-66
2024/03/12 00:33:31;;;;;;;79.13;50.95;;;7.80;99.90;;;;;;5111367;27;20130;-66
2024/03/12 00:36:00;;;;;;;84.22;50.95;;;7.80;99.90;;;;;;5128423;27;20043;-66
2024/03/12 00:38:28;;;;;;;84.43;51.30;;;7.70;99.90;;;;;;5115986;27;20047;-66
2024/03/12 00:40:54;;;;;;;76.68;49.75;;;7.80;99.90;;;;;;5124609;27;20127;-66
2024/03/12 00:43:21;;;;;;;93.47;51.42;;;7.80;99.90;;;;;;5128821;27;20042;-66
2024/03/12 00:45:48;;;;;;;85.75;52.45;;;7.70;99.90;;;;;;5111960;27;20643;-65
2024/03/12 00:48:14;;;;;;;80.93;51.42;;;7.80;99.90;;;;;;5110488;27;20042;-65
2024/03/12 00:50:42;;;;;;;82.00;50.97;;;7.80;99.90;;;;;;5111180;27;20034;-66
2024/03/12 00:53:08;;;;;;;80.30;51.28;;;7.70;99.90;;;;;;5146737;27;20040;-66
2024/03/12 00:55:35;;;;;;;85.05;52.95;;;7.80;99.90;;;;;;5103952;27;20045;-66
2024/03/12 00:58:02;;;;;;;81.43;50.20;;;7.80;99.90;;;;;;5105458;27;20370;-66
2024/03/12 01:00:33;;;;;;;81.70;51.55;;;7.80;99.90;;;;;;5136090;27;20035;-66
2024/03/12 01:03:00;;;;;;;84.18;52.40;;;7.80;99.90;;;;;;5126541;27;20499;-66
2024/03/12 01:05:30;;;;;;;76.60;49.45;;;7.70;99.90;;;;;;5142706;27;20038;-66
2024/03/12 01:07:58;;;;;;;77.60;50.63;;;7.80;99.90;;;;;;5145300;27;20048;-66
2024/03/12 01:10:26;;;;;;;71.93;48.72;;;7.70;99.90;;;;;;5109200;27;20038;-66
2024/03/12 01:12:53;;;;;;;71.88;49.47;;;7.70;99.90;;;;;;5129629;27;20380;-66
2024/03/12 01:15:20;;;;;;;75.00;48.53;;;7.70;99.90;;;;;;5107395;27;20067;-66
2024/03/12 01:17:49;;;;;;;76.82;48.58;;;7.70;99.90;;;;;;5131790;27;20441;-66
2024/03/12 01:20:20;;;;;;;79.05;51.03;;;7.70;99.90;;;;;;5131762;27;20043;-66
2024/03/12 01:22:47;;;;;;;68.07;48.15;;;7.70;99.90;;;;;;5144657;27;20078;-66
2024/03/12 01:25:12;;;;;;;73.82;49.40;;;7.70;99.90;;;;;;5108497;27;20031;-66
2024/03/12 01:27:41;;;;;;;74.65;50.17;;;7.70;99.90;;;;;;5130966;27;20084;-65
2024/03/12 01:30:08;;;;;;;73.05;49.55;;;7.70;99.90;;;;;;5109994;27;20047;-66
2024/03/12 01:32:36;;;;;;;70.38;50.15;;;7.70;99.90;;;;;;5129794;27;20378;-66
2024/03/12 01:35:08;;;;;;;76.10;49.42;;;7.70;99.90;;;;;;5102352;27;20034;-66
2024/03/12 01:37:35;;;;;;;76.03;47.85;;;7.70;99.90;;;;;;5129164;27;20049;-66
2024/03/12 01:40:09;;;;;;;73.03;47.50;;;7.70;99.90;;;;;;5143274;27;20105;-66
2024/03/12 01:42:35;;;;;;;70.88;48.60;;;7.70;99.90;;;;;;5111777;27;20042;-66
2024/03/12 01:45:01;;;;;;;73.22;46.97;;;7.70;99.90;;;;;;5128745;27;20037;-66
2024/03/12 01:47:26;;;;;;;76.85;46.80;;;7.70;99.90;;;;;;5132247;27;20076;-66
2024/03/12 01:49:52;;;;;;;75.28;48.40;;;7.70;99.90;;;;;;5115818;27;20043;-66
2024/03/12 01:52:23;;;;;;;68.20;48.38;;;7.70;99.90;;;;;;5112484;27;20039;-66
2024/03/12 01:54:50;;;;;;;66.25;46.72;;;7.70;99.90;;;;;;5111747;27;20062;-65
2024/03/12 01:57:16;;;;;;;65.88;47.72;;;7.70;99.90;;;;;;5107158;27;20495;-66
2024/03/12 01:59:42;;;;;;;70.90;48.63;;;7.70;99.90;;;;;;5130508;27;20043;-66
2024/03/12 02:02:14;;;;;;;67.07;48.45;;;7.70;99.90;;;;;;5131157;27;20361;-66
2024/03/12 02:04:40;;;;;;;64.63;46.22;;;7.80;99.90;;;;;;5128176;27;20378;-65
2024/03/12 02:07:06;;;;;;;75.57;48.60;;;7.70;99.90;;;;;;5126783;27;20046;-65
2024/03/12 02:09:31;;;;;;;64.65;47.75;;;7.70;99.90;;;;;;5129644;27;20027;-66
2024/03/12 02:11:57;;;;;;;79.53;48.90;;;7.70;99.90;;;;;;5127726;27;20499;-66
2024/03/12 02:14:22;;;;;;;76.13;48.55;;;7.60;99.90;;;;;;5127477;27;20074;-66
2024/03/12 02:16:50;;;;;;;80.28;48.97;;;7.70;99.90;;;;;;5143659;27;20046;-65
2024/03/12 02:19:18;;;;;;;78.00;49.10;;;7.70;99.90;;;;;;5112953;27;20047;-66
2024/03/12 02:21:44;;;;;;;86.30;50.28;;;7.70;99.90;;;;;;5139033;27;20069;-66
2024/03/12 02:24:10;;;;;;;82.05;49.70;;;7.70;99.90;;;;;;5144647;27;20035;-66
2024/03/12 02:26:35;;;;;;;76.80;49.20;;;7.80;99.90;;;;;;5105929;27;20554;-66
2024/03/12 02:29:01;;;;;;;79.97;50.35;;;7.80;99.90;;;;;;5112221;27;20036;-65
2024/03/12 02:31:27;;;;;;;83.63;52.97;;;7.80;99.90;;;;;;5107905;27;20047;-66
2024/03/12 02:33:52;;;;;;;77.18;49.45;;;7.70;99.90;;;;;;5094192;27;20454;-66
2024/03/12 02:36:20;;;;;;;89.68;51.35;;;7.70;99.90;;;;;;5113342;27;20446;-66
2024/03/12 02:38:46;;;;;;;89.03;50.63;;;7.70;99.90;;;;;;5111213;27;20097;-66
2024/03/12 02:41:11;;;;;;;85.32;52.10;;;7.70;99.90;;;;;;5127291;27;20040;-66
2024/03/12 02:43:37;;;;;;;96.28;54.17;;;7.70;99.90;;;;;;5111569;27;20046;-66
2024/03/12 02:46:04;;;;;;;90.90;55.53;;;7.70;99.90;;;;;;5142088;27;20027;-66
2024/03/12 02:48:30;;;;;;;89.75;53.90;;;7.70;99.90;;;;;;5129802;27;20035;-66
2024/03/12 02:50:56;;;;;;;93.35;54.72;;;7.70;99.90;;;;;;5125690;27;20055;-66
2024/03/12 02:53:22;;;;;;;90.85;52.97;;;7.70;99.90;;;;;;5106490;27;20053;-66
2024/03/12 02:55:48;;;;;;;99.50;56.72;;;7.70;99.90;;;;;;5140924;27;20031;-66
2024/03/12 02:58:13;;;;;;;99.93;56.10;;;7.70;99.90;;;;;;5112360;27;20418;-65
2024/03/12 03:00:39;;;;;;;88.22;53.75;;;7.70;99.90;;;;;;5113991;27;20039;-66
2024/03/12 03:03:06;;;;;;;99.28;55.08;;;7.70;99.90;;;;;;5108166;27;20036;-65
2024/03/12 03:05:32;;;;;;;92.07;54.33;;;7.70;99.90;;;;;;5125037;27;20086;-66
2024/03/12 03:07:57;;;;;;;84.57;52.90;;;7.80;99.90;;;;;;5109378;27;20504;-66
2024/03/12 03:10:23;;;;;;;90.97;55.20;;;7.70;99.90;;;;;;5140846;27;20054;-66
2024/03/12 03:12:49;;;;;;;95.63;55.60;;;7.70;99.90;;;;;;5139027;27;20118;-66
2024/03/12 03:15:15;;;;;;;97.57;57.05;;;7.70;99.90;;;;;;5111691;27;20043;-65
2024/03/12 03:17:45;;;;;;;96.25;55.05;;;7.70;99.90;;;;;;5115467;27;20046;-66
2024/03/12 03:20:12;;;;;;;110.65;56.88;;;7.70;99.90;;;;;;5113409;27;20046;-65
2024/03/12 03:22:47;;;;;;;94.88;57.15;;;7.70;99.90;;;;;;5125852;27;20035;-66
2024/03/12 03:25:13;;;;;;;100.25;57.30;;;7.70;99.90;;;;;;5106826;27;20031;-65
2024/03/12 03:27:38;;;;;;;92.95;56.15;;;7.70;99.90;;;;;;5089609;27;20091;-65
2024/03/12 03:30:07;;;;;;;102.03;58.33;;;7.60;99.90;;;;;;5122709;27;20412;-66
2024/03/12 03:32:35;;;;;;;108.47;58.20;;;7.70;99.90;;;;;;5144367;27;20448;-65
2024/03/12 03:35:03;;;;;;;94.25;56.85;;;7.70;99.90;;;;;;5108237;27;20039;-65
2024/03/12 03:37:34;;;;;;;111.53;58.55;;;7.70;99.90;;;;;;5141757;27;20091;-66
2024/03/12 03:40:04;;;;;;;109.45;57.33;;;7.70;99.90;;;;;;5103065;27;20097;-66
2024/03/12 03:42:32;;;;;;;102.80;57.58;;;7.60;99.90;;;;;;5144162;27;20039;-66
2024/03/12 03:44:58;;;;;;;102.75;58.42;;;7.70;99.90;;;;;;5109727;27;20389;-66
2024/03/12 03:47:24;;;;;;;96.68;57.50;;;7.60;99.90;;;;;;5111616;27;20027;-66
2024/03/12 03:49:52;;;;;;;97.47;58.47;;;7.70;99.90;;;;;;5110446;27;20036;-66
2024/03/12 03:52:18;;;;;;;95.53;57.50;;;7.60;99.90;;;;;;5111250;27;20039;-66
2024/03/12 03:54:43;;;;;;;88.43;54.20;;;7.80;99.90;;;;;;5145468;27;20084;-66
2024/03/12 03:57:09;;;;;;;86.88;53.63;;;7.70;99.90;;;;;;5144720;27;20604;-66
2024/03/12 03:59:35;;;;;;;82.38;51.42;;;7.70;99.90;;;;;;5110507;27;20042;-66
2024/03/12 04:02:00;;;;;;;84.00;53.55;;;7.70;99.90;;;;;;5148049;27;20046;-66
2024/03/12 04:04:26;;;;;;;92.20;51.47;;;7.70;99.90;;;;;;5142297;27;20035;-66
2024/03/12 04:06:51;;;;;;;93.85;52.00;;;7.70;99.90;;;;;;5125537;27;20068;-66
2024/03/12 04:09:17;;;;;;;87.18;50.35;;;7.70;99.90;;;;;;5143962;27;20107;-66
2024/03/12 04:11:48;;;;;;;90.95;53.75;;;7.70;99.90;;;;;;5111021;27;20039;-66
2024/03/12 04:14:14;;;;;;;85.80;51.03;;;7.70;99.90;;;;;;5109688;27;20093;-66
2024/03/12 04:16:40;;;;;;;85.70;54.00;;;7.70;99.90;;;;;;5144165;27;20051;-66
2024/03/12 04:19:06;;;;;;;89.53;50.67;;;7.80;99.90;;;;;;5113344;27;20046;-65
2024/03/12 04:21:31;;;;;;;89.97;53.55;;;7.70;99.90;;;;;;5145270;27;20053;-66
2024/03/12 04:23:57;;;;;;;85.40;53.40;;;7.70;99.90;;;;;;5127500;27;20031;-66
2024/03/12 04:26:22;;;;;;;91.63;51.70;;;7.70;99.90;;;;;;5112337;27;20126;-66
2024/03/12 04:28:48;;;;;;;92.38;53.25;;;7.70;99.90;;;;;;5146326;27;20365;-66
2024/03/12 04:31:14;;;;;;;92.75;52.15;;;7.70;99.90;;;;;;5127589;27;20130;-66
2024/03/12 04:33:40;;;;;;;90.43;52.75;;;7.70;99.90;;;;;;5150133;27;20110;-66
2024/03/12 04:36:06;;;;;;;80.60;49.25;;;7.70;99.90;;;;;;5109953;27;20480;-66
2024/03/12 04:38:32;;;;;;;85.68;51.95;;;7.80;99.90;;;;;;5127685;27;20047;-66
2024/03/12 04:40:59;;;;;;;85.70;51.00;;;7.70;99.90;;;;;;5126955;27;20409;-65
2024/03/12 04:43:24;;;;;;;76.50;49.50;;;7.70;99.90;;;;;;5127617;27;20095;-65
2024/03/12 04:45:50;;;;;;;84.85;50.17;;;7.70;99.90;;;;;;5129189;27;21069;-65
2024/03/12 04:48:16;;;;;;;76.88;48.25;;;7.70;99.90;;;;;;5109172;27;20484;-65
2024/03/12 04:50:41;;;;;;;71.35;48.10;;;7.70;99.90;;;;;;5114035;27;20087;-66
2024/03/12 04:53:07;;;;;;;76.22;47.67;;;7.70;99.90;;;;;;5111006;27;20039;-66
2024/03/12 04:55:39;;;;;;;69.75;47.40;;;7.70;99.90;;;;;;5111939;27;20035;-66
2024/03/12 04:58:05;;;;;;;75.35;47.03;;;7.70;99.90;;;;;;5129335;27;20038;-66
2024/03/12 05:00:31;;;;;;;65.13;45.50;;;7.70;99.90;;;;;;5125402;27;20035;-66
2024/03/12 05:02:56;;;;;;;74.57;48.13;;;7.70;99.90;;;;;;5111443;27;20035;-66
2024/03/12 05:05:23;;;;;;;64.40;45.13;;;7.70;99.90;;;;;;5129175;27;21596;-66
2024/03/12 05:07:50;;;;;;;64.97;45.10;;;7.70;99.90;;;;;;5128532;27;20046;-66
2024/03/12 05:10:16;;;;;;;64.70;45.00;;;7.70;99.90;;;;;;5129041;27;20039;-65
2024/03/12 05:12:43;;;;;;;70.07;45.20;;;7.70;99.90;;;;;;5131574;27;20124;-65
2024/03/12 05:15:11;;;;;;;67.78;45.50;;;7.70;99.90;;;;;;5111209;27;20051;-66
2024/03/12 05:17:40;;;;;;;68.88;43.97;;;7.60;99.90;;;;;;5111718;27;20179;-66
2024/03/12 05:20:10;;;;;;;69.88;43.95;;;7.60;99.90;;;;;;5105506;27;20035;-65
2024/03/12 05:22:36;;;;;;;58.58;43.20;;;7.60;99.90;;;;;;5138075;27;20043;-66
2024/03/12 05:25:03;;;;;;;59.22;42.53;;;7.60;99.90;;;;;;5121730;27;20069;-66
2024/03/12 05:27:37;;;;;;;60.83;41.38;;;7.60;99.90;;;;;;5105018;27;20040;-66
2024/03/12 05:30:16;;;;;;;59.05;40.42;;;7.70;99.90;;;;;;5139614;27;20084;-66
2024/03/12 05:32:48;;;;;;;61.28;43.78;;;7.60;99.90;;;;;;5105561;27;20038;-66
2024/03/12 05:35:20;;;;;;;61.70;41.60;;;7.70;99.90;;;;;;5102526;27;20066;-66
2024/03/12 05:38:02;;;;;;;56.80;39.03;;;7.60;99.90;;;;;;5102364;27;20047;-66
2024/03/12 05:48:52;;;;;;;55.80;39.50;;;7.60;99.90;;;;;;5102959;27;20044;-65
2024/03/12 05:51:20;;;;;;;58.55;40.58;;;7.60;99.90;;;;;;5101224;27;20039;-66
2024/03/12 05:53:47;;;;;;;60.50;40.20;;;7.60;99.90;;;;;;5101049;27;20122;-66
2024/03/12 05:56:12;;;;;;;67.13;40.25;;;7.60;99.90;;;;;;5099432;27;20036;-65
2024/03/12 05:58:39;;;;;;;59.17;39.47;;;7.60;99.90;;;;;;5098645;27;20047;-66
2024/03/12 06:01:05;;;;;;;58.90;38.58;;;7.60;99.90;;;;;;5100784;28;20059;-65
2024/03/12 06:03:36;;;;;;;58.35;38.78;;;7.60;99.90;;;;;;5107255;27;20454;-66
2024/03/12 06:06:04;;;;;;;59.33;38.55;;;7.60;99.90;;;;;;5103788;27;20477;-66
2024/03/12 06:08:30;;;;;;;60.10;38.97;;;7.60;99.90;;;;;;5103448;27;20086;-66
2024/03/12 06:10:56;;;;;;;60.08;40.45;;;7.70;99.90;;;;;;5104420;27;20051;-66
2024/03/12 06:13:22;;;;;;;64.45;38.22;;;7.60;99.90;;;;;;5106240;27;20062;-66
2024/03/12 06:15:49;;;;;;;61.08;40.17;;;7.60;99.90;;;;;;5106445;27;20044;-66
2024/03/12 06:18:17;;;;;;;55.55;39.40;;;7.60;99.90;;;;;;5106062;27;20081;-66
2024/03/12 06:20:46;;;;;;;59.00;38.03;;;7.60;99.90;;;;;;5103709;27;20051;-66
2024/03/12 06:23:18;;;;;;;55.58;39.85;;;7.60;99.90;;;;;;5104252;27;20093;-66
2024/03/12 06:25:44;;;;;;;58.00;38.17;;;7.60;99.90;;;;;;5139786;27;20083;-66
2024/03/12 06:28:11;;;;;;;62.65;39.92;;;7.70;99.90;;;;;;5103427;27;20036;-66
2024/03/12 06:30:38;;;;;;;65.97;39.47;;;7.60;99.90;;;;;;5106986;27;20047;-66
2024/03/12 06:33:06;;;;;;;69.25;41.72;;;7.60;99.90;;;;;;5104323;27;20436;-66
2024/03/12 06:35:35;;;;;;;68.05;39.72;;;7.60;99.90;;;;;;5097848;28;20485;-66
2024/03/12 06:38:05;;;;;;;67.35;39.78;;;7.60;99.90;;;;;;5106065;28;20444;-66
2024/03/12 06:40:32;;;;;;;61.92;40.33;;;7.60;99.90;;;;;;5098793;27;20048;-66
2024/03/12 06:43:00;;;;;;;72.93;43.33;;;7.70;99.90;;;;;;5102611;28;20470;-66
2024/03/12 06:45:26;;;;;;;71.80;39.63;;;7.60;99.90;;;;;;5101930;27;20074;-66
2024/03/12 06:47:55;;;;;;;64.30;40.03;;;7.70;99.90;;;;;;5107054;28;20032;-66
2024/03/12 06:50:26;;;;;;;62.78;39.70;;;7.60;99.90;;;;;;5106175;27;21672;-66
2024/03/12 06:52:53;;;;;;;71.40;42.88;;;7.60;99.90;;;;;;5098826;28;20044;-65
2024/03/12 06:55:23;;;;;;;62.38;41.42;;;7.60;99.90;;;;;;5131281;27;20039;-66
2024/03/12 06:57:54;;;;;;;73.22;41.25;;;7.70;99.90;;;;;;5102627;28;20497;-66
2024/03/12 07:00:32;;;;;;;68.85;40.20;;;7.70;99.90;;;;;;5102853;28;20058;-65
2024/03/12 07:02:59;;;;;;;70.95;41.13;;;7.70;99.90;;;;;;5089154;28;20586;-67
2024/03/12 07:05:29;;;;;;;67.35;41.75;;;7.70;99.90;;;;;;5098443;28;20074;-66
2024/03/12 07:07:55;;;;;;;75.75;42.70;;;7.70;99.90;;;;;;5099970;28;20490;-67
2024/03/12 07:10:22;;;;;;;71.53;41.72;;;7.70;99.90;;;;;;5136489;27;20050;-67
2024/03/12 07:12:48;;;;;;;68.05;41.63;;;7.80;99.90;;;;;;5097631;28;20545;-66
2024/03/12 07:15:16;;;;;;;79.75;43.63;;;7.70;99.90;;;;;;5099330;28;20039;-67
2024/03/12 07:17:42;;;;;;;77.40;44.50;;;7.80;99.90;;;;;;5104290;28;20040;-67
2024/03/12 07:20:11;;;;;;;91.35;46.25;;;7.80;99.90;;;;;;5107262;28;20039;-67
2024/03/12 07:22:37;;;;;;;82.10;46.20;;;7.70;99.90;;;;;;5098269;28;20050;-67
2024/03/12 07:25:06;;;;;;;91.72;48.88;;;7.80;99.90;;;;;;5103025;28;20130;-66
2024/03/12 07:27:31;;;;;;;96.82;49.88;;;7.80;99.90;;;;;;5102005;28;20391;-66
2024/03/12 07:29:59;;;;;;;116.60;50.42;;;7.80;99.90;;;;;;5103428;28;20032;-67
2024/03/12 07:32:25;;;;;;;100.10;49.70;;;7.80;99.90;;;;;;5104022;28;20044;-67
2024/03/12 07:34:50;;;;;;;112.13;51.75;;;7.80;99.90;;;;;;5103141;28;20046;-67
2024/03/12 07:37:17;;;;;;;103.03;51.63;;;7.80;99.90;;;;;;5104903;28;20636;-67
2024/03/12 07:39:43;;;;;;;100.13;51.78;;;7.80;99.90;;;;;;5087051;28;20047;-66
2024/03/12 07:42:09;;;;;;;108.72;52.47;;;8.40;99.90;;;;;;5103904;27;20574;-66
2024/03/12 07:44:35;;;;;;;113.40;53.60;;;7.80;99.90;;;;;;5111385;27;20427;-66
2024/03/12 07:47:03;;;;;;;97.03;52.22;;;7.80;99.90;;;;;;5138021;27;20497;-66
2024/03/12 07:49:32;;;;;;;115.05;53.20;;;7.80;99.90;;;;;;5137505;27;20039;-67
2024/03/12 07:51:59;;;;;;;105.32;52.33;;;7.80;99.90;;;;;;5110519;27;20086;-67
2024/03/12 07:54:26;;;;;;;108.10;52.72;;;7.80;99.90;;;;;;5105912;27;20068;-66
2024/03/12 07:56:52;;;;;;;104.53;51.72;;;7.80;99.90;;;;;;5117935;27;20375;-67
2024/03/12 07:59:21;;;;;;;101.93;51.78;;;7.80;99.90;;;;;;5122457;27;20039;-66
2024/03/12 08:01:54;;;;;;;93.47;49.47;;;7.80;99.90;;;;;;5122273;27;20438;-66
2024/03/12 08:04:20;;;;;;;101.25;48.97;;;7.80;99.90;;;;;;5105490;27;20039;-67
2024/03/12 08:06:46;;;;;;;90.93;49.47;;;7.80;99.90;;;;;;5104778;27;20042;-67
2024/03/12 08:09:12;;;;;;;83.97;45.58;;;7.90;99.90;;;;;;5124029;27;20031;-67
2024/03/12 08:11:38;;;;;;;73.05;41.47;;;7.80;99.90;;;;;;5108018;27;20039;-65
2024/03/12 08:14:04;;;;;;;78.55;44.92;;;7.90;99.90;;;;;;5104513;27;20103;-66
2024/03/12 08:16:31;;;;;;;81.75;43.65;;;7.80;99.90;;;;;;5124277;27;20035;-67
2024/03/12 08:18:58;;;;;;;80.07;44.70;;;7.90;99.90;;;;;;5126739;27;20042;-67
2024/03/12 08:21:28;;;;;;;68.70;38.38;;;7.90;99.90;;;;;;5137583;27;20427;-66
2024/03/12 08:23:58;;;;;;;62.47;38.80;;;7.90;99.90;;;;;;5101583;27;20493;-66
2024/03/12 08:26:28;;;;;;;56.80;37.30;;;7.90;99.90;;;;;;5105575;27;20035;-67
2024/03/12 08:28:55;;;;;;;66.75;37.80;;;8.00;99.90;;;;;;5120574;27;20508;-66
2024/03/12 08:31:22;;;;;;;59.53;34.97;;;8.00;99.90;;;;;;5121329;27;20048;-66
2024/03/12 08:33:48;;;;;;;60.33;35.47;;;8.00;99.90;;;;;;5106687;27;20150;-66
2024/03/12 08:36:14;;;;;;;49.28;31.80;;;8.00;99.90;;;;;;5139498;27;20503;-67
2024/03/12 08:38:40;;;;;;;50.75;32.28;;;8.00;99.90;;;;;;5105491;27;20084;-66
2024/03/12 08:41:09;;;;;;;48.78;29.50;;;8.00;99.90;;;;;;5124837;27;20369;-66
2024/03/12 08:43:36;;;;;;;41.13;26.48;;;8.00;99.90;;;;;;5106520;27;20088;-66
2024/03/12 08:46:03;;;;;;;38.53;24.30;;;8.00;99.90;;;;;;5141065;27;20633;-66
2024/03/12 08:48:29;;;;;;;35.90;23.73;;;8.00;99.90;;;;;;5111892;27;20082;-67
2024/03/12 08:50:56;;;;;;;34.85;22.38;;;8.00;99.90;;;;;;5138404;27;20120;-66
2024/03/12 08:53:21;;;;;;;31.13;20.42;;;8.00;99.90;;;;;;5138759;27;20047;-66
2024/03/12 08:55:47;;;;;;;27.00;18.88;;;8.00;99.90;;;;;;5124115;27;20157;-67
2024/03/12 08:58:13;;;;;;;28.45;19.30;;;8.40;99.90;;;;;;5133747;27;20050;-67
2024/03/12 09:00:41;;;;;;;23.98;17.85;;;8.10;99.90;;;;;;5126036;27;20039;-67
2024/03/12 09:03:06;;;;;;;25.05;18.50;;;8.00;99.90;;;;;;5123862;27;20423;-67
2024/03/12 09:05:34;;;;;;;22.95;15.82;;;8.10;99.90;;;;;;5123031;27;20042;-67
2024/03/12 09:08:03;;;;;;;18.13;15.52;;;8.10;99.90;;;;;;5105425;27;20046;-67
2024/03/12 09:10:30;;;;;;;17.08;14.57;;;8.10;99.90;;;;;;5105491;27;20054;-66
2024/03/12 09:12:56;;;;;;;16.77;14.45;;;8.10;99.90;;;;;;5136445;27;20118;-66
2024/03/12 09:15:22;;;;;;;15.93;13.45;;;8.20;99.90;;;;;;5124469;27;20039;-67
2024/03/12 09:17:48;;;;;;;17.13;13.63;;;8.10;99.90;;;;;;5135371;27;20031;-67
2024/03/12 09:20:14;;;;;;;15.98;13.75;;;8.20;99.90;;;;;;5139629;27;20528;-66
2024/03/12 09:22:44;;;;;;;15.25;13.65;;;8.20;99.90;;;;;;5121844;27;20088;-66
2024/03/12 09:25:18;;;;;;;14.68;12.45;;;8.20;99.90;;;;;;5103133;27;20047;-67
2024/03/12 09:27:46;;;;;;;15.90;13.43;;;8.20;99.90;;;;;;5141247;27;20497;-67
2024/03/12 09:30:12;;;;;;;15.68;12.90;;;8.30;99.90;;;;;;5134896;27;20043;-66
2024/03/12 09:32:39;;;;;;;13.77;12.30;;;8.30;99.90;;;;;;5120699;27;20401;-67
2024/03/12 09:35:06;;;;;;;15.20;13.25;;;8.30;99.90;;;;;;5105507;27;20369;-67
2024/03/12 09:37:35;;;;;;;14.20;12.70;;;8.30;99.90;;;;;;5100586;27;20043;-67
2024/03/12 09:40:07;;;;;;;15.27;12.23;;;8.40;99.90;;;;;;5121057;27;20126;-67
2024/03/12 09:42:36;;;;;;;15.98;13.32;;;8.40;99.90;;;;;;5105611;27;20051;-67
2024/03/12 09:45:08;;;;;;;14.75;13.23;;;8.50;99.90;;;;;;5121602;27;20085;-67
2024/03/12 09:47:35;;;;;;;13.80;12.40;;;8.50;99.90;;;;;;5103808;27;20033;-67
2024/03/12 09:50:01;;;;;;;17.20;12.23;;;8.60;99.90;;;;;;5106082;27;20515;-67
2024/03/12 09:52:29;;;;;;;16.35;13.82;;;8.60;99.90;;;;;;5104673;27;20043;-67
2024/03/12 09:54:55;;;;;;;14.93;12.55;;;8.60;99.90;;;;;;5102116;27;20039;-67
2024/03/12 09:57:22;;;;;;;13.65;11.60;;;8.70;99.90;;;;;;5104407;27;20047;-67
2024/03/12 09:59:48;;;;;;;18.08;13.60;;;8.70;99.90;;;;;;5084975;27;20040;-66
2024/03/12 10:02:14;;;;;;;16.25;12.82;;;8.70;99.90;;;;;;5102488;27;20066;-66
2024/03/12 10:04:40;;;;;;;17.02;13.20;;;8.60;99.90;;;;;;5137605;27;20485;-66
2024/03/12 10:07:06;;;;;;;16.02;12.20;;;8.60;99.90;;;;;;5133987;27;20054;-67
2024/03/12 10:09:31;;;;;;;16.17;12.43;;;8.60;99.90;;;;;;5100998;27;20050;-66
2024/03/12 10:12:03;;;;;;;17.48;13.27;;;8.60;99.90;;;;;;5136797;27;20070;-66
2024/03/12 10:14:33;;;;;;;18.45;12.88;;;8.80;99.90;;;;;;5138331;27;20079;-67
2024/03/12 10:17:15;;;;;;;16.00;12.68;;;8.60;99.90;;;;;;5139938;27;20047;-67
2024/03/12 10:19:43;;;;;;;18.80;13.43;;;8.60;99.90;;;;;;5132928;27;20058;-67
2024/03/12 10:22:21;;;;;;;16.80;13.82;;;8.60;99.90;;;;;;5134376;27;20039;-67
2024/03/12 10:24:52;;;;;;;19.65;13.98;;;8.50;99.90;;;;;;5100176;28;20042;-67
2024/03/12 10:27:18;;;;;;;17.42;14.52;;;8.60;99.90;;;;;;5124539;27;20043;-66
2024/03/12 10:29:44;;;;;;;22.75;16.13;;;8.50;99.90;;;;;;5119469;27;20397;-66
2024/03/12 10:32:20;;;;;;;24.15;16.25;;;8.50;99.90;;;;;;5119773;27;20484;-65
2024/03/12 10:34:45;;;;;;;;;;;8.40;99.90;;;;;;5105142;28;20069;-67
2024/03/12 10:37:34;;;;;;;22.90;15.50;;;8.40;99.90;;;;;;5119048;27;19923;-67
2024/03/12 10:40:16;;;;;;;24.98;15.90;;;8.80;99.90;;;;;;5100994;27;20443;-66
2024/03/12 10:43:01;;;;;;;21.73;15.77;;;8.40;99.90;;;;;;5118015;27;20152;-67
2024/03/12 10:45:31;;;;;;;30.27;18.92;;;8.40;99.90;;;;;;5099731;27;20051;-67
2024/03/12 10:47:56;;;;;;;32.17;18.95;;;8.40;99.90;;;;;;5139319;27;20044;-66
2024/03/12 10:50:26;;;;;;;31.42;20.77;;;8.30;99.90;;;;;;5122734;27;20043;-66
2024/03/12 10:52:57;;;;;;;30.65;19.00;;;8.30;99.90;;;;;;5134166;27;20119;-66
2024/03/12 10:55:23;;;;;;;31.92;20.33;;;8.30;99.90;;;;;;5125057;27;20035;-66
2024/03/12 10:57:54;;;;;;;34.35;19.90;;;8.30;99.90;;;;;;5121973;27;20031;-66
2024/03/12 11:00:20;;;;;;;31.02;19.30;;;8.20;99.90;;;;;;5125824;27;20037;-67
2024/03/12 11:02:50;;;;;;;35.17;22.00;;;8.30;99.90;;;;;;5101255;27;20039;-67
2024/03/12 11:05:32;;;;;;;33.30;20.27;;;8.30;99.90;;;;;;5103035;27;20092;-66
2024/03/12 11:07:59;;;;;;;33.70;19.85;;;8.30;99.90;;;;;;5134910;27;20043;-67
2024/03/12 11:10:30;;;;;;;35.13;21.25;;;8.30;99.90;;;;;;5119617;27;20035;-67
2024/03/12 11:13:00;;;;;;;30.50;19.17;;;8.30;99.90;;;;;;5120787;28;20082;-67
2024/03/12 11:15:26;;;;;;;30.55;19.25;;;8.30;99.90;;;;;;5121887;27;20030;-67
2024/03/12 11:17:53;;;;;;;35.38;21.10;;;8.30;99.90;;;;;;5143591;27;20041;-66
2024/03/12 11:20:23;;;;;;;33.38;20.95;;;8.20;99.90;;;;;;5112027;27;20515;-66
2024/03/12 11:23:01;;;;;;;34.22;21.92;;;8.30;99.90;;;;;;5146375;27;20042;-67
2024/03/12 11:25:43;;;;;;;38.10;22.23;;;8.30;99.90;;;;;;5124524;27;20039;-66
2024/03/12 11:28:22;;;;;;;37.35;22.40;;;8.40;99.90;;;;;;5128174;27;20424;-67
2024/03/12 11:31:04;;;;;;;38.83;22.58;;;8.40;99.90;;;;;;5107490;27;20123;-67
2024/03/12 11:33:38;;;;;;;37.90;22.50;;;8.40;99.90;;;;;;5104645;27;20423;-66
2024/03/12 11:36:34;;;;;;;36.90;22.73;;;8.40;99.90;;;;;;5138694;27;20084;-67
2024/03/12 11:39:15;;;;;;;36.33;21.70;;;8.40;99.90;;;;;;5137616;27;20100;-66
2024/03/12 11:42:06;;;;;;;37.83;23.13;;;8.40;99.90;;;;;;5102687;27;20039;-67
2024/03/12 11:44:47;;;;;;;37.15;21.52;;;8.40;99.90;;;;;;5104846;27;20118;-67
2024/03/12 11:47:34;;;;;;;33.10;19.92;;;8.30;99.90;;;;;;5106876;27;20046;-67
2024/03/12 11:50:01;;;;;;;35.88;19.33;;;8.30;99.90;;;;;;5113528;27;20047;-67
2024/03/12 11:52:27;;;;;;;36.40;19.98;;;8.30;99.90;;;;;;5106477;27;20051;-67
2024/03/12 11:54:53;;;;;;;32.42;17.77;;;8.30;99.90;;;;;;5105544;27;20050;-66
2024/03/12 11:57:25;;;;;;;30.13;18.63;;;8.30;99.90;;;;;;5122265;27;20089;-66
2024/03/12 11:59:51;;;;;;;31.77;19.08;;;8.30;99.90;;;;;;5134757;27;20078;-67
2024/03/12 12:02:20;;;;;;;31.10;18.17;;;8.30;99.90;;;;;;5130558;27;20073;-66
2024/03/12 12:05:00;;;;;;;36.60;18.70;;;8.40;99.90;;;;;;5107138;27;20073;-66
2024/03/12 12:07:27;;;;;;;32.15;17.92;;;8.40;99.90;;;;;;5125527;27;20454;-67
2024/03/12 12:09:53;;;;;;;28.90;16.58;;;8.40;99.90;;;;;;5120000;27;20059;-66
2024/03/12 12:12:20;;;;;;;28.25;17.45;;;8.40;99.90;;;;;;5124864;27;20077;-66
2024/03/12 12:14:47;;;;;;;28.60;16.83;;;8.50;99.90;;;;;;5105064;27;20412;-66
2024/03/12 12:17:24;;;;;;;27.45;15.90;;;8.60;99.90;;;;;;5124273;27;20046;-67
2024/03/12 12:20:16;;;;;;;30.35;17.15;;;8.60;99.90;;;;;;5107343;27;20052;-67
2024/03/12 12:22:49;;;;;;;29.80;17.10;;;8.60;99.90;;;;;;5135764;27;20085;-67
2024/03/12 12:25:19;;;;;;;30.92;17.13;;;8.60;99.90;;;;;;5105301;27;20089;-67
2024/03/12 12:27:46;;;;;;;27.67;16.58;;;8.60;99.90;;;;;;5104281;27;20424;-66
2024/03/12 12:30:14;;;;;;;32.53;17.70;;;8.60;99.90;;;;;;5123210;27;20050;-67
2024/03/12 12:32:42;;;;;;;27.80;17.48;;;8.60;99.90;;;;;;5127104;27;20043;-67
2024/03/12 12:35:11;;;;;;;27.58;17.33;;;8.60;99.90;;;;;;5102709;27;20083;-67
2024/03/12 12:37:39;;;;;;;27.92;16.05;;;8.60;99.90;;;;;;5102689;27;20043;-66
2024/03/12 12:40:07;;;;;;;29.13;16.52;;;8.60;99.90;;;;;;5101190;27;20139;-66
2024/03/12 12:42:38;;;;;;;29.77;15.25;;;8.60;99.90;;;;;;5108202;27;20066;-67
2024/03/12 12:45:05;;;;;;;30.70;16.35;;;8.60;99.90;;;;;;5138919;27;20035;-67
2024/03/12 12:47:31;;;;;;;36.40;17.55;;;8.60;99.90;;;;;;5125437;27;20062;-66
2024/03/12 12:49:59;;;;;;;30.95;16.80;;;8.60;99.90;;;;;;5136022;27;20043;-67